Terminal Aerodrome Forecast
Issued by NWS

Home | Current Version | Previous Version | Graphics & Text | Print | Product List | Glossary On
Versions: 1 2 3 4 5 6 7 8 9 10 11 12 13 14 15 16 17
000
FTUS43 KABR 221131
TAFPIR
TAF
KPIR 221131Z 2212/2312 VRB06KT P6SM SCT110
     FM221400 29010KT P6SM SCT200
     FM221700 30015G22KT P6SM SCT250
     FM230000 34013G20KT P6SM BKN060
     FM230200 36011KT P6SM BKN015=

USA.gov is the U.S. government's official web portal to all federal, state and local government web resources and services.